Time;durP1;ratioP1;P1;durP2;ratioP2;P2;SDS_P1;SDS_P2;PMS_P1;PMS_P2;Temp;Humidity;BMP_temperature;BMP_pressure;BME280_temperature;BME280_humidity;BME280_pressure;Samples;Min_cycle;Max_cycle;Signal;HPM_P1;HPM_P2
2023/04/21 00:02:26;;;;;;;10.40;3.10;;;;;;;11.01;77.60;98365.70;82046;1294;3018011;-61
2023/04/21 00:04:52;;;;;;;14.10;3.60;;;;;;;10.85;77.53;98359.24;82064;1295;3011439;-60
2023/04/21 00:07:21;;;;;;;15.80;3.40;;;;;;;10.69;78.62;98364.38;80757;1295;3048750;-61
2023/04/21 00:09:47;;;;;;;8.60;2.20;;;;;;;10.59;79.14;98360.06;82086;1295;3012707;-60
2023/04/21 00:12:14;;;;;;;10.80;2.40;;;;;;;11.08;78.66;98354.22;82011;1296;3011334;-63
2023/04/21 00:14:42;;;;;;;15.20;3.30;;;;;;;11.68;76.33;98352.54;80834;1294;3051403;-64
2023/04/21 00:17:08;;;;;;;14.20;3.00;;;;;;;11.79;75.47;98352.50;82010;1296;3018246;-61
2023/04/21 00:19:35;;;;;;;15.10;3.30;;;;;;;11.68;75.64;98347.96;82061;1296;3011334;-60
2023/04/21 00:22:05;;;;;;;17.10;3.20;;;;;;;11.48;75.74;98345.74;80767;1296;3026196;-61
2023/04/21 00:24:32;;;;;;;10.30;2.70;;;;;;;11.29;76.49;98344.86;82052;1295;3011224;-59
2023/04/21 00:26:59;;;;;;;19.10;3.70;;;;;;;11.04;77.05;98345.99;81988;1295;3010973;-62
2023/04/21 00:29:26;;;;;;;13.30;3.40;;;;;;;10.80;78.57;98340.89;80810;1295;3051915;-61
2023/04/21 00:31:53;;;;;;;11.10;3.30;;;;;;;10.76;78.57;98339.77;82003;1294;3013189;-59
2023/04/21 00:34:19;;;;;;;21.00;3.40;;;;;;;10.63;78.91;98341.15;82091;1295;3011373;-63
2023/04/21 00:36:47;;;;;;;9.70;2.60;;;;;;;10.60;79.57;98341.38;80705;1297;3026548;-60
2023/04/21 00:39:14;;;;;;;17.80;2.70;;;;;;;11.01;78.24;98342.89;82057;1295;3013079;-62
2023/04/21 00:41:40;;;;;;;11.60;2.40;;;;;;;11.49;76.73;98334.07;82087;1294;3011445;-60
2023/04/21 00:44:08;;;;;;;16.20;3.10;;;;;;;11.56;76.16;98334.42;80678;1297;3026324;-59
2023/04/21 00:46:35;;;;;;;13.20;3.50;;;;;;;11.41;76.44;98329.55;82066;1295;3017885;-60
2023/04/21 00:49:05;;;;;;;14.30;2.90;;;;;;;11.25;76.68;98332.39;82056;1294;3011439;-63
2023/04/21 00:51:34;;;;;;;13.80;3.20;;;;;;;11.06;77.36;98333.54;80704;1296;3049066;-59
2023/04/21 00:54:02;;;;;;;17.40;3.00;;;;;;;10.92;77.93;98335.58;82082;1295;3013011;-60
2023/04/21 00:56:30;;;;;;;17.50;3.40;;;;;;;10.75;78.35;98333.24;81944;1296;3011393;-60
2023/04/21 00:58:59;;;;;;;12.50;3.60;;;;;;;10.53;79.37;98332.85;80726;1295;3050811;-61
2023/04/21 01:01:26;;;;;;;12.70;3.70;;;;;;;10.48;79.85;98338.10;82057;1294;3012702;-60
2023/04/21 01:03:52;;;;;;;12.20;2.40;;;;;;;10.44;80.15;98333.16;81936;1295;3011288;-63
2023/04/21 01:06:20;;;;;;;12.40;2.20;;;;;;;10.92;79.02;98334.85;80744;1294;3026583;-60
2023/04/21 01:08:47;;;;;;;10.20;2.20;;;;;;;11.47;76.88;98329.33;82086;1297;3018163;-63
2023/04/21 01:11:15;;;;;;;11.70;3.40;;;;;;;11.57;76.26;98331.13;81971;1297;3011350;-65
2023/04/21 01:13:43;;;;;;;13.40;2.70;;;;;;;11.43;76.23;98325.86;80816;1294;3051695;-62
2023/04/21 01:16:15;;;;;;;18.50;3.40;;;;;;;11.26;76.75;98328.29;82007;1295;3012747;-60
2023/04/21 01:18:44;;;;;;;24.90;3.50;;;;;;;11.02;77.29;98326.30;80797;1294;3052748;-57
2023/04/21 01:21:10;;;;;;;25.10;5.20;;;;;;;10.90;77.88;98326.41;82035;1300;3011045;-62
2023/04/21 01:23:37;;;;;;;17.50;3.80;;;;;;;10.84;78.24;98329.16;82029;1299;3011643;-62
2023/04/21 01:26:05;;;;;;;20.70;3.40;;;;;;;10.71;78.53;98325.65;80769;1294;3068267;-61
2023/04/21 01:28:35;;;;;;;23.10;4.10;;;;;;;10.62;79.12;98320.42;81952;1294;3011200;-62
2023/04/21 01:31:05;;;;;;;15.00;2.80;;;;;;;10.56;79.39;98319.80;80731;1295;3057345;-61
2023/04/21 01:33:31;;;;;;;24.00;3.40;;;;;;;11.03;78.37;98319.80;82049;1295;3013249;-64
2023/04/21 01:36:00;;;;;;;19.00;3.30;;;;;;;11.59;76.73;98318.67;81944;1297;3011083;-62
2023/04/21 01:38:27;;;;;;;19.00;3.80;;;;;;;11.63;75.85;98316.95;80681;1297;3052587;-62
2023/04/21 01:40:54;;;;;;;13.80;3.30;;;;;;;11.52;76.28;98317.72;82045;1293;3013135;-59
2023/04/21 01:43:22;;;;;;;22.10;4.40;;;;;;;11.33;76.59;98316.80;82023;1294;3011370;-61
2023/04/21 01:45:51;;;;;;;23.40;3.40;;;;;;;11.09;77.42;98314.72;80826;1295;3056731;-62
2023/04/21 01:48:17;;;;;;;19.30;3.60;;;;;;;10.94;78.30;98315.94;82016;1295;3013197;-63
2023/04/21 01:50:44;;;;;;;20.60;3.90;;;;;;;10.85;78.75;98317.20;82065;1295;3011259;-62
2023/04/21 01:53:12;;;;;;;18.70;4.10;;;;;;;10.81;78.79;98314.34;80741;1295;3026007;-64
2023/04/21 01:55:38;;;;;;;16.20;3.80;;;;;;;10.72;78.72;98316.77;82064;1298;3012979;-62
2023/04/21 01:58:10;;;;;;;11.40;2.20;;;;;;;10.68;78.93;98313.83;81500;1296;3011031;-59
2023/04/21 02:00:36;;;;;;;14.30;2.90;;;;;;;11.18;77.94;98309.29;81980;1295;3011427;-61
2023/04/21 02:03:04;;;;;;;14.20;2.40;;;;;;;11.68;76.21;98303.74;82028;1295;3011343;-64
2023/04/21 02:05:32;;;;;;;25.10;4.00;;;;;;;11.72;75.68;98309.27;80778;1295;3051899;-62
2023/04/21 02:07:59;;;;;;;16.70;3.80;;;;;;;11.61;76.17;98310.84;82017;1295;3018397;-64
2023/04/21 02:10:25;;;;;;;13.10;4.20;;;;;;;11.37;76.42;98311.64;81991;1297;3011796;-61
2023/04/21 02:12:53;;;;;;;14.10;3.50;;;;;;;11.08;77.36;98309.02;80777;1295;3025673;-61
2023/04/21 02:15:20;;;;;;;21.40;3.30;;;;;;;10.90;78.08;98307.49;82014;1295;3018163;-60
2023/04/21 02:17:46;;;;;;;21.90;4.20;;;;;;;10.70;79.04;98311.19;81953;1294;3011357;-62
2023/04/21 02:20:14;;;;;;;22.20;4.30;;;;;;;10.56;79.86;98309.31;80766;1294;3026035;-62
2023/04/21 02:22:41;;;;;;;18.00;3.80;;;;;;;10.44;80.17;98311.11;81977;1297;3012686;-61
2023/04/21 02:25:07;;;;;;;13.70;3.30;;;;;;;10.37;80.57;98310.63;82069;1295;3011189;-62
2023/04/21 02:27:36;;;;;;;12.90;3.00;;;;;;;10.91;79.63;98309.72;80850;1295;3026044;-62
2023/04/21 02:30:02;;;;;;;14.40;3.50;;;;;;;11.48;77.29;98308.98;82054;1295;3018723;-65
2023/04/21 02:32:29;;;;;;;14.30;2.60;;;;;;;11.56;76.54;98311.95;82002;1295;3011164;-63
2023/04/21 02:34:57;;;;;;;13.40;3.00;;;;;;;11.44;76.42;98308.20;80757;1295;3026607;-60
2023/04/21 02:37:23;;;;;;;11.80;2.60;;;;;;;11.21;76.75;98309.76;81966;1295;3018720;-64
2023/04/21 02:39:52;;;;;;;12.70;3.60;;;;;;;11.06;77.46;98311.29;82100;1295;3011194;-64
2023/04/21 02:42:20;;;;;;;11.30;2.70;;;;;;;10.81;77.98;98312.61;80750;1295;3069783;-61
2023/04/21 02:44:47;;;;;;;6.50;2.30;;;;;;;10.67;78.63;98313.03;82037;1295;3013063;-61
2023/04/21 02:47:15;;;;;;;10.70;2.80;;;;;;;10.50;79.35;98314.15;82012;1295;3011307;-60
2023/04/21 02:49:43;;;;;;;13.70;2.80;;;;;;;10.36;80.00;98308.38;80692;1297;3052231;-60
2023/04/21 02:52:11;;;;;;;7.50;1.70;;;;;;;10.33;80.57;98308.77;82088;1295;3011381;-59
2023/04/21 02:54:38;;;;;;;9.10;1.50;;;;;;;10.80;79.25;98306.02;82048;1297;3011250;-60
2023/04/21 02:57:06;;;;;;;5.00;1.70;;;;;;;11.34;77.65;98300.93;80791;1295;3069229;-63
2023/04/21 02:59:32;;;;;;;11.20;2.60;;;;;;;11.48;76.95;98305.42;82081;1294;3012376;-61
2023/04/21 03:01:59;;;;;;;11.90;2.20;;;;;;;11.42;76.95;98304.36;81953;1294;3011303;-61
2023/04/21 03:04:27;;;;;;;8.50;2.50;;;;;;;11.17;77.10;98305.16;80831;1294;3026599;-61
2023/04/21 03:06:54;;;;;;;12.20;2.60;;;;;;;10.94;77.86;98305.42;82069;1295;3013204;-61
2023/04/21 03:09:20;;;;;;;9.30;2.00;;;;;;;10.82;78.37;98305.48;82049;1297;3011035;-61
2023/04/21 03:11:48;;;;;;;10.50;2.00;;;;;;;10.66;79.19;98300.98;80791;1294;3027075;-58
2023/04/21 03:14:14;;;;;;;8.20;2.20;;;;;;;10.54;79.62;98298.08;82126;1293;3012722;-64
2023/04/21 03:16:41;;;;;;;7.10;1.50;;;;;;;10.43;80.02;98297.59;82020;1295;3011393;-58
2023/04/21 03:19:09;;;;;;;2.10;0.80;;;;;;;10.40;80.12;98298.66;80722;1296;3026180;-60
2023/04/21 03:21:37;;;;;;;9.70;2.00;;;;;;;10.93;78.92;98294.95;82103;1294;3012585;-61
2023/04/21 03:24:05;;;;;;;8.60;2.00;;;;;;;11.40;77.32;98289.41;82016;1297;3011184;-57
2023/04/21 03:26:33;;;;;;;9.20;1.80;;;;;;;11.59;76.66;98291.86;80758;1294;3068976;-57
2023/04/21 03:29:00;;;;;;;11.90;2.50;;;;;;;11.45;76.38;98291.52;82051;1293;3013170;-60
2023/04/21 03:31:26;;;;;;;6.10;2.00;;;;;;;11.15;76.79;98289.38;82030;1294;3011286;-60
2023/04/21 03:33:54;;;;;;;14.60;2.10;;;;;;;10.91;77.95;98291.63;80823;1295;3026753;-61
2023/04/21 03:36:21;;;;;;;11.90;2.60;;;;;;;10.79;78.62;98295.38;81939;1297;3013317;-60
2023/04/21 03:38:47;;;;;;;6.50;2.10;;;;;;;10.60;79.24;98297.92;82077;1295;3011194;-60
2023/04/21 03:41:15;;;;;;;8.10;2.40;;;;;;;10.52;79.38;98295.25;80795;1294;3026011;-57
2023/04/21 03:43:41;;;;;;;6.60;1.40;;;;;;;10.34;80.35;98295.98;81995;1294;3012781;-60
2023/04/21 03:46:16;;;;;;;8.30;1.50;;;;;;;10.70;79.73;98300.98;82014;1294;3011353;-60
2023/04/21 03:48:46;;;;;;;5.20;1.70;;;;;;;11.32;77.92;98300.04;80698;1295;3053119;-60
2023/04/21 03:51:13;;;;;;;7.80;2.10;;;;;;;11.43;77.21;98301.05;82068;1295;3012437;-61
2023/04/21 03:53:40;;;;;;;8.20;2.40;;;;;;;11.34;77.15;98304.30;82087;1295;3011200;-61
2023/04/21 03:56:08;;;;;;;10.00;2.30;;;;;;;11.20;77.55;98301.70;80697;1294;3068650;-63
2023/04/21 03:58:34;;;;;;;8.70;1.60;;;;;;;11.07;78.23;98298.95;82069;1294;3013102;-59
2023/04/21 04:01:01;;;;;;;8.20;2.40;;;;;;;10.98;78.39;98298.24;82058;1294;3010994;-60
2023/04/21 04:03:29;;;;;;;8.30;2.20;;;;;;;10.85;79.12;98304.39;80804;1293;3026435;-60
2023/04/21 04:05:56;;;;;;;5.70;2.00;;;;;;;10.70;79.89;98299.48;82076;1295;3018137;-59
2023/04/21 04:08:23;;;;;;;4.30;1.30;;;;;;;10.65;80.41;98302.81;82031;1298;3011343;-64
2023/04/21 04:10:51;;;;;;;5.50;1.60;;;;;;;11.02;79.27;98303.55;80804;1295;3068688;-65
2023/04/21 04:13:18;;;;;;;5.60;1.40;;;;;;;11.62;77.59;98296.34;82089;1295;3018643;-63
2023/04/21 04:15:44;;;;;;;7.70;1.60;;;;;;;11.75;76.66;98295.80;82047;1294;3011040;-64
2023/04/21 04:18:12;;;;;;;3.40;1.30;;;;;;;11.59;76.12;98289.11;80737;1294;3026535;-63
2023/04/21 04:20:38;;;;;;;4.50;1.60;;;;;;;11.38;76.81;98294.67;82096;1298;3012703;-63
2023/04/21 04:23:05;;;;;;;6.20;1.70;;;;;;;11.20;77.31;98297.77;82003;1297;3011357;-65
2023/04/21 04:25:33;;;;;;;3.40;1.50;;;;;;;11.11;77.64;98294.74;80671;1297;3026120;-59
2023/04/21 04:27:59;;;;;;;9.80;1.60;;;;;;;11.01;77.86;98298.91;81974;1295;3012569;-60
2023/04/21 04:30:29;;;;;;;3.70;1.50;;;;;;;10.92;78.37;98302.09;82002;1294;3011264;-63
2023/04/21 04:32:57;;;;;;;6.30;1.90;;;;;;;10.80;78.65;98301.27;80689;1295;3053174;-62
2023/04/21 04:35:23;;;;;;;3.30;0.80;;;;;;;10.70;79.48;98299.08;81962;1297;3018861;-63
2023/04/21 04:37:50;;;;;;;5.00;1.70;;;;;;;11.22;78.82;98297.91;81971;1294;3011374;-61
2023/04/21 04:40:19;;;;;;;2.30;1.10;;;;;;;11.73;76.81;98291.77;80730;1294;3026209;-59
2023/04/21 04:42:47;;;;;;;5.30;1.60;;;;;;;11.79;76.01;98293.89;81981;1295;3013167;-60
2023/04/21 04:45:15;;;;;;;8.50;2.40;;;;;;;11.61;76.82;98286.67;81971;1295;3012695;-63
2023/04/21 04:47:44;;;;;;;4.30;2.20;;;;;;;11.52;77.31;98283.48;80723;1297;3053656;-62
2023/04/21 04:50:11;;;;;;;6.20;3.10;;;;;;;11.28;77.61;98283.20;81980;1297;3013722;-66
2023/04/21 04:52:38;;;;;;;5.60;2.60;;;;;;;11.12;78.85;98282.98;81978;1293;3011247;-60
2023/04/21 04:55:06;;;;;;;6.20;2.80;;;;;;;10.96;79.22;98285.33;80798;1295;3068670;-59
2023/04/21 04:57:32;;;;;;;10.20;3.10;;;;;;;10.78;79.93;98287.46;82026;1296;3011570;-59
2023/04/21 04:59:59;;;;;;;5.30;1.70;;;;;;;10.69;80.69;98286.02;82045;1294;3011347;-62
2023/04/21 05:02:27;;;;;;;4.70;1.80;;;;;;;11.27;79.38;98284.20;80691;1298;3053244;-60
2023/04/21 05:04:53;;;;;;;5.70;1.70;;;;;;;11.99;77.48;98287.90;81961;1295;3013014;-60
2023/04/21 05:07:20;;;;;;;5.60;2.70;;;;;;;12.01;75.28;98285.59;81979;1295;3011309;-58
2023/04/21 05:09:48;;;;;;;6.80;2.70;;;;;;;11.82;75.47;98286.45;80731;1297;3026002;-60
2023/04/21 05:12:15;;;;;;;7.80;2.90;;;;;;;11.60;76.26;98282.73;82004;1295;3013289;-59
2023/04/21 05:14:42;;;;;;;6.90;2.90;;;;;;;11.47;77.19;98279.54;81967;1294;3010935;-61
2023/04/21 05:17:09;;;;;;;6.40;3.00;;;;;;;11.09;78.08;98280.91;80715;1295;3051456;-65
2023/04/21 05:19:36;;;;;;;9.00;3.10;;;;;;;11.10;78.09;98282.94;81992;1295;3012578;-60
2023/04/21 05:22:05;;;;;;;11.70;3.20;;;;;;;10.96;78.14;98286.16;81974;1295;3011241;-62
2023/04/21 05:24:33;;;;;;;10.20;3.10;;;;;;;10.83;78.65;98284.92;80685;1294;3068118;-62
2023/04/21 05:27:01;;;;;;;8.60;1.80;;;;;;;10.71;79.22;98285.52;81983;1294;3012886;-64
2023/04/21 05:29:28;;;;;;;8.10;2.60;;;;;;;11.21;78.34;98277.63;81940;1296;3011231;-62
2023/04/21 05:31:56;;;;;;;10.10;2.40;;;;;;;11.70;76.38;98278.91;80701;1295;3053516;-64
2023/04/21 05:34:23;;;;;;;10.70;2.90;;;;;;;11.88;76.13;98279.77;81980;1297;3012600;-62
2023/04/21 05:36:51;;;;;;;14.30;3.10;;;;;;;11.68;75.36;98280.09;81974;1295;3011408;-59
2023/04/21 05:39:18;;;;;;;11.00;2.80;;;;;;;11.55;75.84;98276.41;80749;1294;3067847;-62
2023/04/21 05:41:45;;;;;;;11.80;3.20;;;;;;;11.35;75.73;98277.05;81997;1295;3012700;-63
2023/04/21 05:44:11;;;;;;;15.20;4.40;;;;;;;11.08;76.44;98275.54;81988;1296;3011316;-61
2023/04/21 05:46:39;;;;;;;10.10;3.30;;;;;;;10.88;77.65;98280.50;80763;1294;3026128;-61
2023/04/21 05:49:05;;;;;;;9.20;3.60;;;;;;;10.78;78.29;98274.80;82073;1298;3012452;-61
2023/04/21 05:51:32;;;;;;;16.10;4.00;;;;;;;10.70;78.69;98277.06;81981;1296;3011291;-63
2023/04/21 05:54:00;;;;;;;8.10;2.50;;;;;;;10.64;79.57;98275.93;80712;1296;3026354;-63
2023/04/21 05:56:26;;;;;;;8.90;2.40;;;;;;;11.19;78.72;98272.73;81993;1294;3012545;-60
2023/04/21 05:58:53;;;;;;;9.80;3.00;;;;;;;11.78;76.98;98270.12;81961;1294;3011821;-61
2023/04/21 06:01:20;;;;;;;16.60;3.20;;;;;;;12.01;75.64;98268.23;80682;1297;3025699;-64
2023/04/21 06:03:48;;;;;;;17.80;3.60;;;;;;;11.92;74.86;98271.20;81934;1300;3012458;-63
2023/04/21 06:06:16;;;;;;;16.30;3.20;;;;;;;11.73;75.12;98270.77;82006;1295;3011213;-63
2023/04/21 06:08:44;;;;;;;18.10;3.40;;;;;;;11.45;76.27;98266.77;80736;1294;3070174;-63
2023/04/21 06:11:11;;;;;;;11.70;3.80;;;;;;;11.28;77.30;98267.63;81980;1298;3012689;-63
2023/04/21 06:13:37;;;;;;;14.80;3.80;;;;;;;11.20;77.94;98275.49;81974;1294;3011350;-61
2023/04/21 06:16:05;;;;;;;12.60;3.60;;;;;;;11.23;78.10;98276.60;80741;1296;3026674;-62
2023/04/21 06:18:32;;;;;;;17.50;4.10;;;;;;;11.14;77.89;98274.89;81957;1297;3012692;-62
2023/04/21 06:20:58;;;;;;;9.60;2.70;;;;;;;11.08;78.45;98279.23;82004;1297;3011379;-61
2023/04/21 06:23:26;;;;;;;11.70;2.50;;;;;;;11.59;77.19;98281.67;80701;1295;3026755;-65
2023/04/21 06:26:00;;;;;;;19.10;2.80;;;;;;;12.23;74.96;98283.20;82029;1296;3018281;-63
2023/04/21 06:28:28;;;;;;;12.20;3.80;;;;;;;12.35;73.88;98280.90;80667;1295;3050179;-59
2023/04/21 06:30:54;;;;;;;18.70;3.70;;;;;;;12.10;73.97;98286.75;82001;1295;3019103;-63
2023/04/21 06:33:21;;;;;;;13.40;3.50;;;;;;;11.94;74.88;98285.65;82034;1293;3011249;-60
2023/04/21 06:35:48;;;;;;;17.40;3.30;;;;;;;11.96;75.46;98289.91;80778;1295;3026799;-61
2023/04/21 06:38:15;;;;;;;10.40;3.80;;;;;;;11.79;75.09;98288.50;82001;1296;3018547;-63
2023/04/21 06:40:41;;;;;;;12.90;4.20;;;;;;;11.62;75.93;98291.68;81960;1295;3011648;-62
2023/04/21 06:43:09;;;;;;;15.60;4.10;;;;;;;11.52;76.66;98295.41;80689;1294;3026484;-63
2023/04/21 06:45:36;;;;;;;13.00;3.80;;;;;;;11.54;76.89;98285.48;81962;1296;3012713;-64
2023/04/21 06:48:03;;;;;;;11.30;3.50;;;;;;;11.41;76.79;98289.85;81936;1295;3011357;-64
2023/04/21 06:50:31;;;;;;;16.80;2.50;;;;;;;11.39;77.36;98293.50;80694;1295;3026414;-63
2023/04/21 06:52:57;;;;;;;11.20;2.10;;;;;;;11.99;76.29;98295.06;81978;1296;3018315;-62
2023/04/21 06:55:24;;;;;;;10.50;2.60;;;;;;;12.68;74.17;98291.95;81929;1295;3011363;-63
2023/04/21 06:57:51;;;;;;;14.90;3.60;;;;;;;12.82;72.47;98294.20;80714;1294;3025917;-62
2023/04/21 07:00:18;;;;;;;12.80;3.00;;;;;;;12.80;72.43;98293.71;81970;1295;3018718;-61
2023/04/21 07:02:45;;;;;;;14.80;4.10;;;;;;;12.69;72.79;98290.30;81928;1294;3011323;-63
2023/04/21 07:05:12;;;;;;;17.10;3.40;;;;;;;12.54;73.20;98291.42;80709;1296;3025682;-62
2023/04/21 07:07:39;;;;;;;25.70;4.00;;;;;;;12.40;73.27;98288.94;82059;1294;3018699;-64
2023/04/21 07:10:06;;;;;;;15.10;3.90;;;;;;;12.20;74.47;98289.78;82023;1295;3011047;-61
2023/04/21 07:12:34;;;;;;;17.20;3.80;;;;;;;12.17;74.99;98289.52;80822;1294;3025184;-60
2023/04/21 07:15:00;;;;;;;15.00;4.20;;;;;;;12.12;75.19;98293.13;81995;1296;3018641;-62
2023/04/21 07:17:27;;;;;;;13.60;3.60;;;;;;;12.02;75.00;98290.78;81942;1298;3011379;-64
2023/04/21 07:19:54;;;;;;;11.10;3.70;;;;;;;12.04;75.00;98294.42;80780;1295;3026079;-64
2023/04/21 07:22:21;;;;;;;12.70;3.60;;;;;;;11.99;74.87;98293.34;82040;1294;3018949;-68
2023/04/21 07:24:48;;;;;;;11.90;3.80;;;;;;;12.00;74.81;98290.04;82024;1294;3011377;-63
2023/04/21 07:27:17;;;;;;;7.40;2.20;;;;;;;12.07;74.79;98291.58;80845;1294;3026644;-63
2023/04/21 07:29:44;;;;;;;13.90;2.50;;;;;;;12.58;73.01;98284.03;82071;1294;3011247;-61
2023/04/21 07:32:11;;;;;;;13.00;2.60;;;;;;;13.23;71.68;98281.45;81977;1294;3011320;-61
2023/04/21 07:34:39;;;;;;;19.70;3.90;;;;;;;13.39;70.28;98280.52;80721;1297;3052024;-63
2023/04/21 07:37:05;;;;;;;16.40;3.80;;;;;;;13.21;70.66;98279.37;81992;1295;3012511;-60
2023/04/21 07:39:32;;;;;;;13.70;3.40;;;;;;;13.10;71.46;98281.24;81931;1294;3011317;-64
2023/04/21 07:42:00;;;;;;;19.50;3.80;;;;;;;12.74;72.46;98279.83;80727;1294;3026569;-63
2023/04/21 07:44:28;;;;;;;14.10;4.10;;;;;;;12.71;72.97;98286.22;82004;1294;3012835;-63
2023/04/21 07:46:54;;;;;;;21.30;4.00;;;;;;;12.74;73.58;98290.71;81957;1294;3011354;-61
2023/04/21 07:49:22;;;;;;;13.50;3.80;;;;;;;12.82;73.33;98288.43;80681;1300;3052925;-61
2023/04/21 07:51:49;;;;;;;17.60;4.70;;;;;;;12.84;73.23;98288.66;81963;1294;3018160;-60
2023/04/21 07:54:15;;;;;;;15.90;4.80;;;;;;;12.91;72.67;98288.54;81985;1294;3011188;-61
2023/04/21 07:56:43;;;;;;;29.30;5.20;;;;;;;13.02;72.15;98285.23;80668;1294;3026311;-61
2023/04/21 07:59:10;;;;;;;10.30;3.90;;;;;;;13.10;71.67;98283.81;81986;1296;3012728;-63
2023/04/21 08:01:36;;;;;;;16.90;3.90;;;;;;;13.23;71.40;98281.84;81974;1295;3011216;-61
2023/04/21 08:04:05;;;;;;;16.30;3.70;;;;;;;13.28;70.27;98280.84;80711;1295;3025813;-65
2023/04/21 08:06:32;;;;;;;11.30;3.90;;;;;;;13.35;70.26;98280.41;81998;1297;3013285;-61
2023/04/21 08:08:58;;;;;;;17.40;4.80;;;;;;;13.37;69.80;98283.02;81974;1294;3011443;-64
2023/04/21 08:11:27;;;;;;;21.50;4.90;;;;;;;13.36;70.09;98283.79;80722;1294;3049399;-64
2023/04/21 08:13:54;;;;;;;10.40;4.40;;;;;;;13.34;70.08;98285.70;82007;1300;3013389;-61
2023/04/21 08:16:20;;;;;;;14.70;4.20;;;;;;;13.39;69.60;98287.80;81958;1295;3011847;-61
2023/04/21 08:18:48;;;;;;;14.30;4.30;;;;;;;13.44;69.57;98285.23;80706;1300;3053761;-60
2023/04/21 08:21:15;;;;;;;17.20;4.60;;;;;;;13.36;69.24;98289.43;81995;1295;3012790;-62
2023/04/21 08:23:41;;;;;;;14.70;4.10;;;;;;;13.16;69.78;98290.48;81969;1294;3011401;-63
2023/04/21 08:26:09;;;;;;;12.30;3.50;;;;;;;13.15;69.95;98293.94;80697;1295;3026793;-62
2023/04/21 08:28:36;;;;;;;10.90;3.70;;;;;;;13.23;69.59;98293.02;82007;1294;3012662;-65
2023/04/21 08:31:03;;;;;;;9.80;2.80;;;;;;;13.17;70.08;98292.56;81978;1294;3011042;-65
2023/04/21 08:33:31;;;;;;;16.90;3.90;;;;;;;13.04;70.79;98291.73;80708;1298;3052657;-61
2023/04/21 08:35:57;;;;;;;10.30;3.30;;;;;;;13.01;71.23;98290.96;81958;1295;3013255;-61
2023/04/21 08:38:24;;;;;;;11.90;4.00;;;;;;;12.95;71.42;98295.26;82011;1294;3011361;-61
2023/04/21 08:40:52;;;;;;;12.00;4.60;;;;;;;12.93;71.29;98292.54;80788;1295;3026597;-64
2023/04/21 08:43:18;;;;;;;17.30;4.30;;;;;;;12.93;71.70;98292.39;81972;1294;3019184;-63
2023/04/21 08:45:45;;;;;;;16.40;3.90;;;;;;;12.86;71.91;98291.11;82034;1295;3011216;-63
2023/04/21 08:48:17;;;;;;;13.90;3.70;;;;;;;12.78;72.17;98292.84;80716;1295;3025842;-61
2023/04/21 08:50:45;;;;;;;13.40;3.90;;;;;;;12.63;72.69;98295.91;82090;1294;3011466;-65
2023/04/21 08:53:13;;;;;;;16.90;3.80;;;;;;;12.58;73.25;98295.06;80812;1294;3051205;-63
2023/04/21 08:59:20;;;;;;;10.30;3.60;;;;;;;12.68;72.51;98292.30;80857;1293;3013469;-62
2023/04/21 09:02:13;;;;;;;16.70;3.80;;;;;;;12.66;72.82;98292.68;82222;1292;3012866;-64
2023/04/21 09:04:46;;;;;;;12.80;3.30;;;;;;;12.67;73.02;98291.02;80961;1295;3052447;-64
2023/04/21 09:07:35;;;;;;;15.80;3.50;;;;;;;12.62;72.99;98289.13;82219;1292;3011236;-63
2023/04/21 09:10:03;;;;;;;10.50;3.30;;;;;;;12.70;72.73;98288.77;80950;1292;3068676;-63
2023/04/21 09:12:30;;;;;;;10.80;3.00;;;;;;;12.85;72.80;98289.25;80642;1289;3012593;-62
2023/04/21 09:14:57;;;;;;;7.80;2.80;;;;;;;13.45;71.23;98280.74;82354;1289;3011058;-63
2023/04/21 09:17:32;;;;;;;8.90;3.70;;;;;;;14.08;68.10;98281.64;81083;1289;3052433;-64
2023/04/21 09:20:17;;;;;;;13.20;3.10;;;;;;;14.09;67.57;98283.98;81802;1290;3011169;-62
2023/04/21 09:22:48;;;;;;;15.00;3.00;;;;;;;14.11;68.02;98283.65;81070;1289;3050396;-62
2023/04/21 09:25:16;;;;;;;20.30;3.90;;;;;;;14.00;67.98;98282.20;82328;1292;3011245;-63
2023/04/21 09:27:45;;;;;;;18.20;4.00;;;;;;;14.03;67.94;98276.76;81102;1292;3025328;-64
2023/04/21 09:30:11;;;;;;;14.30;4.50;;;;;;;13.87;68.07;98276.23;82372;1292;3012598;-63
2023/04/21 09:32:39;;;;;;;10.90;4.00;;;;;;;13.69;68.62;98276.02;82317;1294;3011130;-64
2023/04/21 09:35:10;;;;;;;13.60;4.20;;;;;;;13.52;69.53;98278.33;81029;1289;3049938;-64
2023/04/21 09:37:37;;;;;;;11.70;3.50;;;;;;;13.38;69.79;98276.75;82375;1289;3011066;-65
2023/04/21 09:40:06;;;;;;;14.10;3.40;;;;;;;13.35;70.17;98274.53;81820;1289;3011284;-63
2023/04/21 09:42:34;;;;;;;16.60;4.00;;;;;;;13.42;69.89;98276.55;82384;1292;3013126;-62
2023/04/21 09:45:01;;;;;;;10.10;3.30;;;;;;;13.44;69.47;98276.08;82314;1293;3011413;-62
2023/04/21 09:47:30;;;;;;;11.20;3.00;;;;;;;13.51;69.30;98273.83;81124;1289;3050087;-63
2023/04/21 09:49:56;;;;;;;12.50;3.20;;;;;;;13.70;68.86;98271.36;82374;1289;3012466;-62
2023/04/21 09:52:23;;;;;;;14.10;3.20;;;;;;;13.69;68.33;98270.83;82284;1290;3011480;-62
2023/04/21 09:54:54;;;;;;;14.20;4.40;;;;;;;13.54;69.16;98276.55;80919;1294;3048849;-62
2023/04/21 09:57:24;;;;;;;12.20;4.20;;;;;;;13.41;69.74;98270.32;82305;1290;3011281;-61
2023/04/21 10:00:00;;;;;;;18.90;4.00;;;;;;;13.49;69.89;98269.94;80970;1292;3052815;-64
2023/04/21 10:02:29;;;;;;;13.60;4.10;;;;;;;13.40;70.03;98273.09;80944;1292;3069091;-61
2023/04/21 10:04:56;;;;;;;14.00;5.50;;;;;;;13.32;70.22;98272.92;82310;1290;3011211;-65
2023/04/21 10:07:22;;;;;;;21.10;6.10;;;;;;;13.39;70.16;98272.98;82224;1291;3011224;-63
2023/04/21 10:09:53;;;;;;;25.50;6.00;;;;;;;13.32;69.96;98273.45;81037;1290;3052710;-62
2023/04/21 10:12:19;;;;;;;13.10;5.50;;;;;;;13.35;70.38;98275.65;82280;1290;3011144;-61
2023/04/21 10:14:55;;;;;;;9.50;4.40;;;;;;;13.32;69.91;98276.39;81708;1295;3011401;-61
2023/04/21 10:17:25;;;;;;;15.90;4.40;;;;;;;13.24;69.91;98277.11;82276;1291;3011552;-66
2023/04/21 10:19:58;;;;;;;14.10;5.20;;;;;;;13.29;69.79;98277.04;81009;1292;3068528;-62
2023/04/21 10:22:28;;;;;;;16.40;4.70;;;;;;;13.31;69.71;98277.41;82173;1291;3011328;-65
2023/04/21 10:24:57;;;;;;;9.80;4.40;;;;;;;13.27;70.10;98279.30;81016;1292;3054955;-63
2023/04/21 10:27:31;;;;;;;10.60;3.90;;;;;;;13.24;70.36;98282.35;82278;1295;3012484;-62
2023/04/21 10:29:59;;;;;;;11.00;4.00;;;;;;;13.25;70.03;98284.81;80998;1295;3050129;-61
2023/04/21 10:32:41;;;;;;;14.70;4.30;;;;;;;13.16;70.32;98282.45;82285;1291;3012775;-64
2023/04/21 10:35:13;;;;;;;16.50;3.80;;;;;;;13.25;70.18;98285.85;81037;1291;3068139;-62
2023/04/21 10:37:40;;;;;;;10.50;4.10;;;;;;;13.34;69.34;98286.92;82286;1291;3011276;-63
2023/04/21 10:40:29;;;;;;;15.20;4.20;;;;;;;13.36;69.08;98286.56;81022;1289;3027303;-64
2023/04/21 10:42:57;;;;;;;11.60;3.80;;;;;;;13.42;68.63;98290.67;81046;1291;3049818;-62
2023/04/21 10:45:24;;;;;;;11.30;3.90;;;;;;;13.39;69.26;98286.70;82289;1292;3018312;-61
2023/04/21 10:47:51;;;;;;;17.20;4.50;;;;;;;13.32;69.49;98291.42;82289;1292;3010918;-60
2023/04/21 10:50:20;;;;;;;8.70;3.30;;;;;;;13.32;69.85;98289.05;81017;1292;3024846;-62
2023/04/21 10:53:08;;;;;;;13.70;4.20;;;;;;;13.27;69.15;98287.63;82288;1292;3013227;-63
2023/04/21 10:55:36;;;;;;;10.20;2.80;;;;;;;13.25;69.74;98283.92;81044;1291;3055720;-59
2023/04/21 10:58:05;;;;;;;6.70;2.80;;;;;;;13.20;69.84;98284.03;82336;1292;3011098;-63
2023/04/21 11:00:31;;;;;;;14.20;3.50;;;;;;;13.05;70.53;98290.27;82313;1291;3011693;-63
2023/04/21 11:03:03;;;;;;;10.30;2.80;;;;;;;13.11;70.59;98293.58;81036;1292;3051526;-62
2023/04/21 11:05:37;;;;;;;6.40;2.90;;;;;;;13.10;70.33;98294.77;82306;1292;3011464;-61
2023/04/21 11:08:07;;;;;;;7.80;3.00;;;;;;;12.91;70.93;98296.45;81035;1292;3069363;-62
2023/04/21 11:10:55;;;;;;;7.60;3.30;;;;;;;12.92;71.12;98305.33;82367;1292;3013118;-63
2023/04/21 11:13:25;;;;;;;9.00;3.20;;;;;;;12.97;71.01;98305.20;81029;1292;3049743;-65
2023/04/21 11:16:04;;;;;;;7.00;2.70;;;;;;;13.04;70.92;98310.40;82334;1292;3011104;-64
2023/04/21 11:18:37;;;;;;;7.10;2.40;;;;;;;13.04;70.71;98309.11;81027;1293;3049664;-62
2023/04/21 11:21:11;;;;;;;9.20;2.60;;;;;;;12.95;70.99;98305.18;82294;1292;3011427;-60